sensor_id;sensor_type;location;lat;lon;timestamp;P1;durP1;ratioP1;P2;durP2;ratioP2
43962;SDS011;29622;45.534;9.242;2023-02-08T00:01:28;27.83;;;12.55;;
43962;SDS011;29622;45.534;9.242;2023-02-08T00:06:29;30.85;;;13.30;;
43962;SDS011;29622;45.534;9.242;2023-02-08T00:11:30;30.30;;;14.93;;
43962;SDS011;29622;45.534;9.242;2023-02-08T00:16:31;25.77;;;13.00;;
43962;SDS011;29622;45.534;9.242;2023-02-08T00:21:31;31.60;;;15.45;;
43962;SDS011;29622;45.534;9.242;2023-02-08T00:26:32;35.33;;;14.30;;
43962;SDS011;29622;45.534;9.242;2023-02-08T00:31:33;31.95;;;14.55;;
43962;SDS011;29622;45.534;9.242;2023-02-08T00:36:34;31.13;;;15.85;;
43962;SDS011;29622;45.534;9.242;2023-02-08T00:41:34;30.65;;;14.30;;
43962;SDS011;29622;45.534;9.242;2023-02-08T00:46:35;27.58;;;13.65;;
43962;SDS011;29622;45.534;9.242;2023-02-08T00:51:36;34.53;;;14.48;;
43962;SDS011;29622;45.534;9.242;2023-02-08T00:56:36;34.20;;;14.35;;
43962;SDS011;29622;45.534;9.242;2023-02-08T01:01:37;35.10;;;14.18;;
43962;SDS011;29622;45.534;9.242;2023-02-08T01:06:38;26.95;;;13.98;;
43962;SDS011;29622;45.534;9.242;2023-02-08T01:11:39;31.88;;;13.10;;
43962;SDS011;29622;45.534;9.242;2023-02-08T01:16:39;34.75;;;14.20;;
43962;SDS011;29622;45.534;9.242;2023-02-08T01:21:40;30.60;;;13.82;;
43962;SDS011;29622;45.534;9.242;2023-02-08T01:26:42;31.17;;;13.25;;
43962;SDS011;29622;45.534;9.242;2023-02-08T01:31:43;27.67;;;13.23;;
43962;SDS011;29622;45.534;9.242;2023-02-08T01:36:44;32.45;;;14.48;;
43962;SDS011;29622;45.534;9.242;2023-02-08T01:41:45;30.50;;;13.63;;
43962;SDS011;29622;45.534;9.242;2023-02-08T01:46:48;29.75;;;13.98;;
43962;SDS011;29622;45.534;9.242;2023-02-08T01:52:01;30.83;;;14.35;;
43962;SDS011;29622;45.534;9.242;2023-02-08T01:57:05;30.90;;;14.30;;
43962;SDS011;29622;45.534;9.242;2023-02-08T02:02:07;29.42;;;15.18;;
43962;SDS011;29622;45.534;9.242;2023-02-08T02:07:11;35.25;;;15.65;;
43962;SDS011;29622;45.534;9.242;2023-02-08T02:12:12;33.60;;;15.73;;
43962;SDS011;29622;45.534;9.242;2023-02-08T02:17:13;30.45;;;13.80;;
43962;SDS011;29622;45.534;9.242;2023-02-08T02:22:28;30.63;;;14.85;;
43962;SDS011;29622;45.534;9.242;2023-02-08T02:43:53;36.40;;;15.93;;
43962;SDS011;29622;45.534;9.242;2023-02-08T02:49:01;31.95;;;15.13;;
43962;SDS011;29622;45.534;9.242;2023-02-08T02:54:18;32.13;;;15.20;;
43962;SDS011;29622;45.534;9.242;2023-02-08T02:59:23;33.83;;;15.98;;
43962;SDS011;29622;45.534;9.242;2023-02-08T03:14:57;33.92;;;14.00;;
43962;SDS011;29622;45.534;9.242;2023-02-08T03:20:09;25.85;;;13.02;;
43962;SDS011;29622;45.534;9.242;2023-02-08T03:25:18;28.92;;;12.82;;
43962;SDS011;29622;45.534;9.242;2023-02-08T03:30:37;34.28;;;14.18;;
43962;SDS011;29622;45.534;9.242;2023-02-08T03:35:54;35.58;;;15.00;;
43962;SDS011;29622;45.534;9.242;2023-02-08T03:41:18;25.60;;;11.75;;
43962;SDS011;29622;45.534;9.242;2023-02-08T03:46:24;35.97;;;14.93;;
43962;SDS011;29622;45.534;9.242;2023-02-08T03:51:29;35.20;;;17.00;;
43962;SDS011;29622;45.534;9.242;2023-02-08T03:56:34;38.90;;;16.27;;
43962;SDS011;29622;45.534;9.242;2023-02-08T04:01:43;34.03;;;14.85;;
43962;SDS011;29622;45.534;9.242;2023-02-08T04:06:47;37.00;;;16.17;;
43962;SDS011;29622;45.534;9.242;2023-02-08T04:11:48;32.03;;;15.15;;
43962;SDS011;29622;45.534;9.242;2023-02-08T04:16:48;32.28;;;15.43;;
43962;SDS011;29622;45.534;9.242;2023-02-08T04:21:49;30.80;;;14.07;;
43962;SDS011;29622;45.534;9.242;2023-02-08T04:26:50;36.30;;;14.15;;
43962;SDS011;29622;45.534;9.242;2023-02-08T04:31:51;31.60;;;13.85;;
43962;SDS011;29622;45.534;9.242;2023-02-08T04:36:52;33.30;;;14.18;;
43962;SDS011;29622;45.534;9.242;2023-02-08T04:41:52;33.50;;;14.20;;
43962;SDS011;29622;45.534;9.242;2023-02-08T04:46:53;28.55;;;14.43;;
43962;SDS011;29622;45.534;9.242;2023-02-08T04:51:54;30.52;;;13.77;;
43962;SDS011;29622;45.534;9.242;2023-02-08T04:56:56;29.98;;;15.32;;
43962;SDS011;29622;45.534;9.242;2023-02-08T05:01:56;35.53;;;13.75;;
43962;SDS011;29622;45.534;9.242;2023-02-08T05:06:57;31.40;;;14.27;;
43962;SDS011;29622;45.534;9.242;2023-02-08T05:11:58;60.95;;;14.82;;
43962;SDS011;29622;45.534;9.242;2023-02-08T05:16:58;35.03;;;15.65;;
43962;SDS011;29622;45.534;9.242;2023-02-08T05:21:59;29.27;;;13.15;;
43962;SDS011;29622;45.534;9.242;2023-02-08T05:26:59;28.83;;;13.88;;
43962;SDS011;29622;45.534;9.242;2023-02-08T05:32:00;31.02;;;14.27;;
43962;SDS011;29622;45.534;9.242;2023-02-08T05:37:00;35.90;;;14.18;;
43962;SDS011;29622;45.534;9.242;2023-02-08T05:42:01;35.35;;;16.33;;
43962;SDS011;29622;45.534;9.242;2023-02-08T05:47:02;37.10;;;15.23;;
43962;SDS011;29622;45.534;9.242;2023-02-08T05:52:03;39.22;;;14.93;;
43962;SDS011;29622;45.534;9.242;2023-02-08T05:57:04;35.33;;;15.02;;
43962;SDS011;29622;45.534;9.242;2023-02-08T06:02:05;35.60;;;15.85;;
43962;SDS011;29622;45.534;9.242;2023-02-08T06:07:05;41.45;;;15.15;;
43962;SDS011;29622;45.534;9.242;2023-02-08T06:12:06;32.53;;;15.63;;
43962;SDS011;29622;45.534;9.242;2023-02-08T06:17:06;29.33;;;14.93;;
43962;SDS011;29622;45.534;9.242;2023-02-08T06:22:07;32.90;;;15.75;;
43962;SDS011;29622;45.534;9.242;2023-02-08T06:27:08;35.65;;;14.75;;
43962;SDS011;29622;45.534;9.242;2023-02-08T06:32:09;36.67;;;17.40;;
43962;SDS011;29622;45.534;9.242;2023-02-08T06:37:11;43.80;;;16.85;;
43962;SDS011;29622;45.534;9.242;2023-02-08T06:42:12;33.35;;;14.57;;
43962;SDS011;29622;45.534;9.242;2023-02-08T06:47:13;35.53;;;15.65;;
43962;SDS011;29622;45.534;9.242;2023-02-08T06:52:14;38.53;;;15.32;;
43962;SDS011;29622;45.534;9.242;2023-02-08T06:57:15;28.83;;;14.07;;
43962;SDS011;29622;45.534;9.242;2023-02-08T07:02:17;31.92;;;14.55;;
43962;SDS011;29622;45.534;9.242;2023-02-08T07:07:19;37.28;;;16.40;;
43962;SDS011;29622;45.534;9.242;2023-02-08T07:12:20;39.70;;;16.77;;
43962;SDS011;29622;45.534;9.242;2023-02-08T07:17:21;31.27;;;14.52;;
43962;SDS011;29622;45.534;9.242;2023-02-08T07:22:24;34.88;;;15.55;;
43962;SDS011;29622;45.534;9.242;2023-02-08T07:27:30;59.75;;;16.92;;
43962;SDS011;29622;45.534;9.242;2023-02-08T07:32:34;45.70;;;17.58;;
43962;SDS011;29622;45.534;9.242;2023-02-08T07:37:35;41.25;;;15.85;;
43962;SDS011;29622;45.534;9.242;2023-02-08T07:42:36;50.15;;;15.98;;
43962;SDS011;29622;45.534;9.242;2023-02-08T07:47:50;40.38;;;16.52;;
43962;SDS011;29622;45.534;9.242;2023-02-08T07:52:51;36.42;;;17.10;;
43962;SDS011;29622;45.534;9.242;2023-02-08T07:57:53;47.15;;;18.17;;
43962;SDS011;29622;45.534;9.242;2023-02-08T08:02:55;35.88;;;17.08;;
43962;SDS011;29622;45.534;9.242;2023-02-08T08:07:56;39.03;;;17.63;;
43962;SDS011;29622;45.534;9.242;2023-02-08T08:12:56;37.13;;;18.77;;
43962;SDS011;29622;45.534;9.242;2023-02-08T08:17:57;45.90;;;17.95;;
43962;SDS011;29622;45.534;9.242;2023-02-08T08:22:58;39.40;;;17.95;;
43962;SDS011;29622;45.534;9.242;2023-02-08T08:28:00;45.63;;;18.60;;
43962;SDS011;29622;45.534;9.242;2023-02-08T08:33:01;32.95;;;17.00;;
43962;SDS011;29622;45.534;9.242;2023-02-08T08:38:02;46.10;;;16.83;;
43962;SDS011;29622;45.534;9.242;2023-02-08T08:43:03;44.00;;;17.90;;
43962;SDS011;29622;45.534;9.242;2023-02-08T08:48:04;36.33;;;17.35;;
43962;SDS011;29622;45.534;9.242;2023-02-08T08:53:05;36.50;;;14.95;;
43962;SDS011;29622;45.534;9.242;2023-02-08T08:58:06;34.28;;;14.20;;
43962;SDS011;29622;45.534;9.242;2023-02-08T09:03:07;26.30;;;11.75;;
43962;SDS011;29622;45.534;9.242;2023-02-08T09:08:08;20.48;;;9.90;;
43962;SDS011;29622;45.534;9.242;2023-02-08T09:13:09;13.00;;;7.00;;
43962;SDS011;29622;45.534;9.242;2023-02-08T09:18:10;21.13;;;8.95;;
43962;SDS011;29622;45.534;9.242;2023-02-08T09:23:11;13.00;;;6.78;;
43962;SDS011;29622;45.534;9.242;2023-02-08T09:28:13;16.98;;;8.07;;
43962;SDS011;29622;45.534;9.242;2023-02-08T09:33:17;16.42;;;9.43;;
43962;SDS011;29622;45.534;9.242;2023-02-08T09:38:18;16.67;;;7.10;;
43962;SDS011;29622;45.534;9.242;2023-02-08T09:43:30;17.00;;;7.55;;
43962;SDS011;29622;45.534;9.242;2023-02-08T09:48:41;16.45;;;8.25;;
43962;SDS011;29622;45.534;9.242;2023-02-08T09:53:49;18.60;;;9.23;;
43962;SDS011;29622;45.534;9.242;2023-02-08T09:58:56;16.73;;;7.50;;
43962;SDS011;29622;45.534;9.242;2023-02-08T10:09:05;16.60;;;7.47;;
43962;SDS011;29622;45.534;9.242;2023-02-08T10:35:38;13.35;;;6.30;;
43962;SDS011;29622;45.534;9.242;2023-02-08T10:40:43;14.48;;;6.15;;
43962;SDS011;29622;45.534;9.242;2023-02-08T10:45:52;17.02;;;7.05;;
43962;SDS011;29622;45.534;9.242;2023-02-08T10:50:55;13.93;;;7.15;;
43962;SDS011;29622;45.534;9.242;2023-02-08T10:55:57;12.38;;;5.85;;
43962;SDS011;29622;45.534;9.242;2023-02-08T11:00:57;15.07;;;8.75;;
43962;SDS011;29622;45.534;9.242;2023-02-08T11:06:00;16.42;;;8.15;;
43962;SDS011;29622;45.534;9.242;2023-02-08T11:11:03;17.40;;;7.65;;
43962;SDS011;29622;45.534;9.242;2023-02-08T11:16:51;18.20;;;7.82;;
43962;SDS011;29622;45.534;9.242;2023-02-08T11:22:04;9.93;;;5.35;;
43962;SDS011;29622;45.534;9.242;2023-02-08T11:27:16;12.90;;;7.47;;
43962;SDS011;29622;45.534;9.242;2023-02-08T11:32:39;15.13;;;5.72;;
43962;SDS011;29622;45.534;9.242;2023-02-08T11:37:47;16.85;;;7.60;;
43962;SDS011;29622;45.534;9.242;2023-02-08T11:42:50;16.50;;;5.05;;
43962;SDS011;29622;45.534;9.242;2023-02-08T11:47:52;20.80;;;8.90;;
43962;SDS011;29622;45.534;9.242;2023-02-08T11:52:55;16.25;;;7.20;;
43962;SDS011;29622;45.534;9.242;2023-02-08T11:57:59;12.70;;;6.88;;
43962;SDS011;29622;45.534;9.242;2023-02-08T12:03:07;16.27;;;7.55;;
43962;SDS011;29622;45.534;9.242;2023-02-08T12:08:20;15.73;;;7.00;;
43962;SDS011;29622;45.534;9.242;2023-02-08T12:13:47;13.40;;;6.50;;
43962;SDS011;29622;45.534;9.242;2023-02-08T12:19:22;12.32;;;5.88;;
43962;SDS011;29622;45.534;9.242;2023-02-08T12:24:50;17.88;;;9.43;;
43962;SDS011;29622;45.534;9.242;2023-02-08T12:45:50;13.30;;;6.32;;
43962;SDS011;29622;45.534;9.242;2023-02-08T12:51:23;15.43;;;7.35;;
43962;SDS011;29622;45.534;9.242;2023-02-08T12:56:34;16.27;;;7.70;;
43962;SDS011;29622;45.534;9.242;2023-02-08T13:01:40;13.02;;;6.40;;
43962;SDS011;29622;45.534;9.242;2023-02-08T13:06:46;10.85;;;6.43;;
43962;SDS011;29622;45.534;9.242;2023-02-08T13:12:01;15.48;;;8.32;;
43962;SDS011;29622;45.534;9.242;2023-02-08T13:17:20;22.52;;;9.20;;
43962;SDS011;29622;45.534;9.242;2023-02-08T13:22:22;19.00;;;8.07;;
43962;SDS011;29622;45.534;9.242;2023-02-08T13:27:23;18.10;;;8.98;;
43962;SDS011;29622;45.534;9.242;2023-02-08T13:32:57;18.08;;;9.15;;
43962;SDS011;29622;45.534;9.242;2023-02-08T13:38:03;15.68;;;6.55;;
43962;SDS011;29622;45.534;9.242;2023-02-08T13:43:07;12.38;;;6.68;;
43962;SDS011;29622;45.534;9.242;2023-02-08T13:48:39;20.35;;;8.88;;
43962;SDS011;29622;45.534;9.242;2023-02-08T13:54:04;21.83;;;9.38;;
43962;SDS011;29622;45.534;9.242;2023-02-08T14:04:28;20.55;;;10.88;;
43962;SDS011;29622;45.534;9.242;2023-02-08T14:15:04;13.45;;;7.82;;
43962;SDS011;29622;45.534;9.242;2023-02-08T14:20:16;18.48;;;10.23;;
43962;SDS011;29622;45.534;9.242;2023-02-08T14:25:24;13.48;;;7.22;;
43962;SDS011;29622;45.534;9.242;2023-02-08T14:30:29;19.95;;;8.23;;
43962;SDS011;29622;45.534;9.242;2023-02-08T14:35:33;17.45;;;8.88;;
43962;SDS011;29622;45.534;9.242;2023-02-08T14:40:52;26.13;;;9.25;;
43962;SDS011;29622;45.534;9.242;2023-02-08T14:51:40;23.42;;;10.73;;
43962;SDS011;29622;45.534;9.242;2023-02-08T14:56:52;15.13;;;8.05;;
43962;SDS011;29622;45.534;9.242;2023-02-08T15:01:57;17.27;;;9.07;;
43962;SDS011;29622;45.534;9.242;2023-02-08T15:12:28;23.40;;;9.90;;
43962;SDS011;29622;45.534;9.242;2023-02-08T15:17:34;17.58;;;7.45;;
43962;SDS011;29622;45.534;9.242;2023-02-08T15:22:40;17.73;;;8.70;;
43962;SDS011;29622;45.534;9.242;2023-02-08T15:27:45;17.80;;;8.10;;
43962;SDS011;29622;45.534;9.242;2023-02-08T15:32:54;11.70;;;6.22;;
43962;SDS011;29622;45.534;9.242;2023-02-08T15:37:56;14.20;;;6.72;;
43962;SDS011;29622;45.534;9.242;2023-02-08T15:43:10;16.45;;;7.85;;
43962;SDS011;29622;45.534;9.242;2023-02-08T15:48:11;14.40;;;7.75;;
43962;SDS011;29622;45.534;9.242;2023-02-08T15:53:13;15.77;;;8.80;;
43962;SDS011;29622;45.534;9.242;2023-02-08T15:58:22;19.17;;;9.45;;
43962;SDS011;29622;45.534;9.242;2023-02-08T16:03:35;14.40;;;5.20;;
43962;SDS011;29622;45.534;9.242;2023-02-08T16:08:38;15.38;;;7.43;;
43962;SDS011;29622;45.534;9.242;2023-02-08T16:13:45;24.25;;;10.45;;
43962;SDS011;29622;45.534;9.242;2023-02-08T16:18:55;18.77;;;9.70;;
43962;SDS011;29622;45.534;9.242;2023-02-08T16:23:59;17.10;;;8.98;;
43962;SDS011;29622;45.534;9.242;2023-02-08T16:29:05;17.13;;;9.15;;
43962;SDS011;29622;45.534;9.242;2023-02-08T16:34:16;18.58;;;9.02;;
43962;SDS011;29622;45.534;9.242;2023-02-08T16:39:19;14.45;;;6.38;;
43962;SDS011;29622;45.534;9.242;2023-02-08T16:44:23;20.65;;;9.93;;
43962;SDS011;29622;45.534;9.242;2023-02-08T16:49:29;16.75;;;9.32;;
43962;SDS011;29622;45.534;9.242;2023-02-08T16:54:30;63.47;;;15.48;;
43962;SDS011;29622;45.534;9.242;2023-02-08T16:59:32;21.17;;;10.63;;
43962;SDS011;29622;45.534;9.242;2023-02-08T17:04:32;20.95;;;10.90;;
43962;SDS011;29622;45.534;9.242;2023-02-08T17:09:34;17.92;;;9.88;;
43962;SDS011;29622;45.534;9.242;2023-02-08T17:14:35;19.30;;;10.70;;
43962;SDS011;29622;45.534;9.242;2023-02-08T17:19:36;22.80;;;10.48;;
43962;SDS011;29622;45.534;9.242;2023-02-08T17:24:37;20.30;;;11.07;;
43962;SDS011;29622;45.534;9.242;2023-02-08T17:29:38;22.80;;;11.05;;
43962;SDS011;29622;45.534;9.242;2023-02-08T17:34:39;18.17;;;10.02;;
43962;SDS011;29622;45.534;9.242;2023-02-08T17:39:40;16.83;;;8.90;;
43962;SDS011;29622;45.534;9.242;2023-02-08T17:44:40;19.27;;;9.93;;
43962;SDS011;29622;45.534;9.242;2023-02-08T17:49:41;24.27;;;10.68;;
43962;SDS011;29622;45.534;9.242;2023-02-08T17:54:42;17.65;;;9.00;;
43962;SDS011;29622;45.534;9.242;2023-02-08T17:59:43;17.77;;;8.15;;
43962;SDS011;29622;45.534;9.242;2023-02-08T18:04:44;17.58;;;7.80;;
43962;SDS011;29622;45.534;9.242;2023-02-08T18:09:45;20.58;;;7.88;;
43962;SDS011;29622;45.534;9.242;2023-02-08T18:14:47;15.38;;;7.60;;
43962;SDS011;29622;45.534;9.242;2023-02-08T18:19:48;17.73;;;7.35;;
43962;SDS011;29622;45.534;9.242;2023-02-08T18:24:48;15.30;;;7.30;;
43962;SDS011;29622;45.534;9.242;2023-02-08T18:29:49;23.58;;;10.13;;
43962;SDS011;29622;45.534;9.242;2023-02-08T18:34:50;20.98;;;9.18;;
43962;SDS011;29622;45.534;9.242;2023-02-08T18:39:51;18.60;;;8.00;;
43962;SDS011;29622;45.534;9.242;2023-02-08T18:44:51;17.42;;;8.13;;
43962;SDS011;29622;45.534;9.242;2023-02-08T18:49:55;21.90;;;10.05;;
43962;SDS011;29622;45.534;9.242;2023-02-08T18:54:56;19.20;;;8.55;;
43962;SDS011;29622;45.534;9.242;2023-02-08T18:59:57;22.25;;;10.68;;
43962;SDS011;29622;45.534;9.242;2023-02-08T19:04:57;28.45;;;11.60;;
43962;SDS011;29622;45.534;9.242;2023-02-08T19:09:58;22.98;;;10.85;;
43962;SDS011;29622;45.534;9.242;2023-02-08T19:14:59;27.48;;;10.90;;
43962;SDS011;29622;45.534;9.242;2023-02-08T19:19:59;21.77;;;10.65;;
43962;SDS011;29622;45.534;9.242;2023-02-08T19:25:00;25.33;;;13.10;;
43962;SDS011;29622;45.534;9.242;2023-02-08T19:30:01;25.65;;;11.38;;
43962;SDS011;29622;45.534;9.242;2023-02-08T19:35:02;20.08;;;10.45;;
43962;SDS011;29622;45.534;9.242;2023-02-08T19:40:03;25.63;;;11.60;;
43962;SDS011;29622;45.534;9.242;2023-02-08T19:45:05;22.70;;;10.90;;
43962;SDS011;29622;45.534;9.242;2023-02-08T19:50:06;23.70;;;10.20;;
43962;SDS011;29622;45.534;9.242;2023-02-08T19:55:07;30.50;;;12.93;;
43962;SDS011;29622;45.534;9.242;2023-02-08T20:00:09;29.70;;;13.32;;
43962;SDS011;29622;45.534;9.242;2023-02-08T20:05:12;24.83;;;12.60;;
43962;SDS011;29622;45.534;9.242;2023-02-08T20:10:13;22.35;;;10.65;;
43962;SDS011;29622;45.534;9.242;2023-02-08T20:15:13;23.83;;;9.52;;
43962;SDS011;29622;45.534;9.242;2023-02-08T20:20:14;29.20;;;13.15;;
43962;SDS011;29622;45.534;9.242;2023-02-08T20:25:14;20.23;;;8.32;;
43962;SDS011;29622;45.534;9.242;2023-02-08T20:30:15;28.27;;;14.45;;
43962;SDS011;29622;45.534;9.242;2023-02-08T20:35:16;19.10;;;8.95;;
43962;SDS011;29622;45.534;9.242;2023-02-08T20:40:17;27.20;;;12.65;;
43962;SDS011;29622;45.534;9.242;2023-02-08T20:45:18;28.88;;;11.50;;
43962;SDS011;29622;45.534;9.242;2023-02-08T20:50:19;23.73;;;11.48;;
43962;SDS011;29622;45.534;9.242;2023-02-08T20:55:19;24.45;;;10.02;;
43962;SDS011;29622;45.534;9.242;2023-02-08T21:00:20;17.80;;;9.13;;
43962;SDS011;29622;45.534;9.242;2023-02-08T21:05:22;23.88;;;10.60;;
43962;SDS011;29622;45.534;9.242;2023-02-08T21:10:22;21.63;;;9.30;;
43962;SDS011;29622;45.534;9.242;2023-02-08T21:15:23;24.35;;;10.93;;
43962;SDS011;29622;45.534;9.242;2023-02-08T21:20:23;20.75;;;8.48;;
43962;SDS011;29622;45.534;9.242;2023-02-08T21:25:24;23.17;;;10.60;;
43962;SDS011;29622;45.534;9.242;2023-02-08T21:30:25;18.88;;;8.15;;
43962;SDS011;29622;45.534;9.242;2023-02-08T21:35:25;16.17;;;7.97;;
43962;SDS011;29622;45.534;9.242;2023-02-08T21:40:26;20.02;;;8.93;;
43962;SDS011;29622;45.534;9.242;2023-02-08T21:45:28;23.17;;;7.80;;
43962;SDS011;29622;45.534;9.242;2023-02-08T21:50:28;19.15;;;7.57;;
43962;SDS011;29622;45.534;9.242;2023-02-08T21:55:48;18.50;;;8.35;;
43962;SDS011;29622;45.534;9.242;2023-02-08T22:00:48;13.90;;;6.63;;
43962;SDS011;29622;45.534;9.242;2023-02-08T22:05:49;16.23;;;6.68;;
43962;SDS011;29622;45.534;9.242;2023-02-08T22:10:53;16.27;;;6.50;;
43962;SDS011;29622;45.534;9.242;2023-02-08T22:15:54;12.68;;;5.95;;
43962;SDS011;29622;45.534;9.242;2023-02-08T22:20:54;13.77;;;5.88;;
43962;SDS011;29622;45.534;9.242;2023-02-08T22:25:55;16.73;;;6.47;;
43962;SDS011;29622;45.534;9.242;2023-02-08T22:30:56;13.23;;;6.15;;
43962;SDS011;29622;45.534;9.242;2023-02-08T22:35:56;13.48;;;5.30;;
43962;SDS011;29622;45.534;9.242;2023-02-08T22:40:57;13.27;;;6.47;;
43962;SDS011;29622;45.534;9.242;2023-02-08T22:45:58;11.88;;;5.03;;
43962;SDS011;29622;45.534;9.242;2023-02-08T22:51:04;10.52;;;5.20;;
43962;SDS011;29622;45.534;9.242;2023-02-08T22:56:09;13.27;;;6.13;;
43962;SDS011;29622;45.534;9.242;2023-02-08T23:01:12;12.95;;;5.90;;
43962;SDS011;29622;45.534;9.242;2023-02-08T23:06:15;12.57;;;6.18;;
43962;SDS011;29622;45.534;9.242;2023-02-08T23:11:16;12.05;;;5.43;;
43962;SDS011;29622;45.534;9.242;2023-02-08T23:16:18;14.85;;;5.30;;
43962;SDS011;29622;45.534;9.242;2023-02-08T23:21:19;11.98;;;5.25;;
43962;SDS011;29622;45.534;9.242;2023-02-08T23:32:35;13.18;;;5.90;;
43962;SDS011;29622;45.534;9.242;2023-02-08T23:37:36;13.68;;;5.15;;
43962;SDS011;29622;45.534;9.242;2023-02-08T23:42:37;10.32;;;5.18;;
43962;SDS011;29622;45.534;9.242;2023-02-08T23:47:38;9.48;;;4.60;;
43962;SDS011;29622;45.534;9.242;2023-02-08T23:52:38;9.82;;;4.88;;
43962;SDS011;29622;45.534;9.242;2023-02-08T23:57:39;11.00;;;5.38;;
